createdAt,value
2019-06-18T00:00:15.096Z,0.00
2019-06-18T00:01:15.084Z,0.00
2019-06-18T00:02:15.071Z,0.00
2019-06-18T00:03:15.064Z,0.00
2019-06-18T00:04:15.046Z,0.00
2019-06-18T00:05:15.040Z,0.00
2019-06-18T00:06:15.022Z,0.00
2019-06-18T00:07:15.008Z,0.00
2019-06-18T00:08:14.999Z,0.00
2019-06-18T00:09:14.991Z,0.00
2019-06-18T00:10:14.975Z,0.00
2019-06-18T00:11:14.970Z,0.00
2019-06-18T00:12:14.946Z,0.00
2019-06-18T00:13:14.941Z,0.00
2019-06-18T00:14:14.923Z,0.00
2019-06-18T00:15:14.919Z,0.00
2019-06-18T00:16:14.907Z,0.00
2019-06-18T00:17:14.889Z,0.00
2019-06-18T00:18:14.876Z,0.00
2019-06-18T00:19:14.861Z,0.00
2019-06-18T00:20:14.850Z,0.00
2019-06-18T00:21:14.839Z,0.00
2019-06-18T00:22:14.834Z,0.00
2019-06-18T00:23:14.813Z,0.00
2019-06-18T00:24:14.804Z,0.00
2019-06-18T00:25:14.795Z,0.00
2019-06-18T00:26:14.780Z,0.00
2019-06-18T00:27:14.772Z,0.00
2019-06-18T00:28:14.756Z,0.00
2019-06-18T00:29:14.740Z,0.00
2019-06-18T00:30:14.737Z,0.00
2019-06-18T00:31:14.716Z,0.00
2019-06-18T00:32:14.705Z,0.00
2019-06-18T00:33:14.693Z,0.00
2019-06-18T00:34:14.684Z,0.00
2019-06-18T00:35:14.667Z,0.00
2019-06-18T00:36:14.665Z,0.00
2019-06-18T00:37:14.643Z,0.00
2019-06-18T00:38:14.632Z,0.00
2019-06-18T00:39:14.619Z,0.00
2019-06-18T00:40:21.295Z,0.00
2019-06-18T00:41:17.185Z,0.00
2019-06-18T00:42:16.771Z,0.00
2019-06-18T00:43:14.568Z,0.00
2019-06-18T00:44:16.950Z,0.00
2019-06-18T00:45:16.713Z,0.00
2019-06-18T00:46:14.537Z,0.00
2019-06-18T00:47:16.635Z,0.00
2019-06-18T00:48:17.271Z,0.00
2019-06-18T00:49:14.497Z,0.00
2019-06-18T00:50:16.592Z,0.00
2019-06-18T00:51:16.683Z,0.00
2019-06-18T00:52:14.457Z,0.00
2019-06-18T00:53:16.815Z,0.00
2019-06-18T00:54:14.434Z,0.00
2019-06-18T00:55:14.421Z,0.00
2019-06-18T00:56:14.409Z,0.00
2019-06-18T00:57:14.397Z,0.00
2019-06-18T00:58:14.386Z,0.00
2019-06-18T00:59:16.446Z,0.00
2019-06-18T01:00:14.369Z,0.00
2019-06-18T01:01:16.830Z,0.00
2019-06-18T01:02:14.342Z,0.00
2019-06-18T01:03:14.322Z,0.00
2019-06-18T01:04:14.314Z,0.00
2019-06-18T01:05:14.297Z,0.00
2019-06-18T01:06:16.939Z,0.00
2019-06-18T01:07:17.083Z,0.00
2019-06-18T01:08:14.259Z,0.00
2019-06-18T01:09:16.479Z,0.00
2019-06-18T01:10:16.708Z,0.00
2019-06-18T01:11:16.841Z,0.00
2019-06-18T01:12:16.728Z,0.00
2019-06-18T01:13:16.635Z,0.00
2019-06-18T01:14:14.192Z,0.00
2019-06-18T01:15:14.178Z,0.00
2019-06-18T01:16:19.695Z,0.00
2019-06-18T01:17:16.748Z,0.00
2019-06-18T01:18:14.139Z,0.00
2019-06-18T01:19:14.134Z,0.00
2019-06-18T01:20:14.134Z,0.00
2019-06-18T01:21:14.105Z,0.00
2019-06-18T01:22:14.091Z,0.00
2019-06-18T01:23:14.078Z,0.00
2019-06-18T01:24:14.062Z,0.00
2019-06-18T01:25:14.053Z,0.00
2019-06-18T01:29:13.998Z,0.00
2019-06-18T01:30:13.995Z,0.00
2019-06-18T01:31:13.974Z,0.00
2019-06-18T01:32:13.963Z,0.00
2019-06-18T01:33:13.967Z,0.00
2019-06-18T01:34:13.935Z,0.00
2019-06-18T01:35:13.921Z,0.00
2019-06-18T01:36:13.910Z,0.00
2019-06-18T01:37:13.898Z,0.00
2019-06-18T01:38:13.886Z,0.00
2019-06-18T01:39:13.872Z,0.00
2019-06-18T01:40:13.880Z,0.00
2019-06-18T01:41:13.858Z,0.00
2019-06-18T01:42:13.839Z,0.00
2019-06-18T01:43:13.821Z,0.00
2019-06-18T01:44:13.809Z,0.00
2019-06-18T01:45:13.800Z,0.00
2019-06-18T01:46:13.789Z,0.00
2019-06-18T01:47:13.771Z,0.00
2019-06-18T01:48:13.761Z,0.00
2019-06-18T01:49:13.750Z,0.00
2019-06-18T01:50:14.057Z,0.00
2019-06-18T01:51:13.989Z,0.00
2019-06-18T01:52:13.712Z,0.00
2019-06-18T01:53:13.696Z,0.00
2019-06-18T01:54:13.685Z,0.00
2019-06-18T01:55:13.669Z,0.00
2019-06-18T01:56:13.663Z,0.00
2019-06-18T01:57:14.742Z,0.00
2019-06-18T01:58:13.636Z,0.00
2019-06-18T01:59:13.620Z,0.00
2019-06-18T02:00:13.625Z,0.00
2019-06-18T02:01:13.595Z,0.00
2019-06-18T02:02:13.581Z,0.00
2019-06-18T02:03:13.569Z,0.00
2019-06-18T02:04:13.557Z,0.00
2019-06-18T02:05:13.545Z,0.00
2019-06-18T02:06:14.146Z,0.00
2019-06-18T02:07:13.519Z,0.00
2019-06-18T02:08:13.511Z,0.00
2019-06-18T02:09:13.494Z,0.00
2019-06-18T02:10:13.663Z,0.00
2019-06-18T02:11:13.479Z,0.00
2019-06-18T02:12:13.456Z,0.00
2019-06-18T02:13:13.446Z,0.00
2019-06-18T02:14:13.573Z,0.00
2019-06-18T02:15:13.417Z,0.00
2019-06-18T02:16:13.415Z,0.00
2019-06-18T02:17:13.391Z,0.00
2019-06-18T02:18:13.381Z,0.00
2019-06-18T02:19:13.617Z,0.00
2019-06-18T02:20:13.364Z,0.00
2019-06-18T02:21:13.342Z,0.00
2019-06-18T02:22:13.328Z,0.00
2019-06-18T02:23:13.346Z,0.00
2019-06-18T02:24:13.309Z,0.00
2019-06-18T02:25:13.843Z,0.00
2019-06-18T02:26:14.085Z,0.00
2019-06-18T02:27:13.416Z,0.00
2019-06-18T02:28:13.258Z,0.00
2019-06-18T02:29:13.480Z,0.00
2019-06-18T02:30:13.975Z,0.00
2019-06-18T02:31:14.010Z,0.00
2019-06-18T02:32:14.475Z,0.00
2019-06-18T02:33:14.481Z,0.00
2019-06-18T02:34:13.181Z,0.00
2019-06-18T02:35:13.749Z,0.00
2019-06-18T02:36:13.150Z,0.00
2019-06-18T02:37:13.593Z,0.00
2019-06-18T02:38:13.281Z,0.00
2019-06-18T02:39:13.413Z,0.00
2019-06-18T02:40:13.111Z,0.00
2019-06-18T02:41:13.087Z,0.00
2019-06-18T02:42:13.332Z,0.00
2019-06-18T02:43:13.507Z,0.00
2019-06-18T02:44:13.184Z,0.00
2019-06-18T02:45:13.146Z,0.00
2019-06-18T02:46:13.374Z,0.00
2019-06-18T02:47:15.790Z,0.00
2019-06-18T02:48:12.998Z,0.00
2019-06-18T02:49:13.280Z,0.00
2019-06-18T02:50:13.567Z,0.00
2019-06-18T02:51:13.162Z,0.00
2019-06-18T02:52:12.975Z,0.00
2019-06-18T02:53:13.204Z,0.00
2019-06-18T02:54:13.135Z,0.00
2019-06-18T02:55:13.313Z,0.00
2019-06-18T02:56:13.250Z,0.00
2019-06-18T02:57:13.446Z,0.00
2019-06-18T02:58:12.874Z,0.00
2019-06-18T02:59:13.228Z,0.00
2019-06-18T03:00:13.747Z,0.00
2019-06-18T03:01:12.832Z,0.00
2019-06-18T03:02:13.327Z,0.00
2019-06-18T03:03:12.807Z,0.00
2019-06-18T03:04:13.039Z,0.00
2019-06-18T03:05:13.450Z,0.00
2019-06-18T03:06:13.037Z,0.00
2019-06-18T03:07:13.416Z,0.00
2019-06-18T03:08:12.901Z,0.00
2019-06-18T03:09:13.012Z,0.00
2019-06-18T03:10:13.196Z,0.00
2019-06-18T03:11:13.469Z,0.00
2019-06-18T03:12:12.971Z,0.00
2019-06-18T03:13:13.303Z,0.00
2019-06-18T03:14:13.269Z,0.00
2019-06-18T03:15:13.593Z,0.00
2019-06-18T03:16:12.991Z,0.00
2019-06-18T03:17:28.771Z,0.00
2019-06-18T03:18:13.290Z,0.00
2019-06-18T03:19:13.190Z,0.00
2019-06-18T03:20:12.588Z,0.00
2019-06-18T03:21:15.837Z,0.00
2019-06-18T03:22:12.605Z,0.00
2019-06-18T03:23:13.405Z,0.00
2019-06-18T03:24:13.359Z,0.00
2019-06-18T03:25:13.516Z,5.63
2019-06-18T03:26:12.534Z,5.63
2019-06-18T03:27:13.103Z,5.63
2019-06-18T03:28:13.035Z,5.63
2019-06-18T03:29:12.983Z,5.63
2019-06-18T03:30:15.078Z,5.63
2019-06-18T03:31:15.277Z,5.63
2019-06-18T03:32:14.490Z,5.63
2019-06-18T03:33:15.067Z,5.63
2019-06-18T03:34:14.992Z,5.63
2019-06-18T03:35:12.699Z,5.63
2019-06-18T03:36:12.910Z,5.63
2019-06-18T03:37:12.784Z,5.63
2019-06-18T03:38:12.441Z,11.25
2019-06-18T03:39:13.201Z,11.25
2019-06-18T03:40:12.943Z,11.25
2019-06-18T03:41:13.192Z,11.25
2019-06-18T03:42:12.974Z,11.25
2019-06-18T03:43:12.788Z,11.25
2019-06-18T03:44:12.607Z,11.25
2019-06-18T03:45:13.090Z,11.25
2019-06-18T03:46:12.448Z,11.25
2019-06-18T03:47:12.699Z,11.25
2019-06-18T03:48:12.839Z,11.25
2019-06-18T03:49:12.533Z,11.25
2019-06-18T03:50:13.301Z,11.25
2019-06-18T03:51:12.820Z,11.25
2019-06-18T03:52:13.230Z,16.88
2019-06-18T03:53:13.548Z,16.88
2019-06-18T03:54:13.308Z,16.88
2019-06-18T03:55:13.789Z,16.88
2019-06-18T03:56:12.611Z,16.88
2019-06-18T03:57:13.572Z,16.88
2019-06-18T03:58:12.714Z,16.88
2019-06-18T03:59:12.861Z,16.88
2019-06-18T04:00:13.434Z,16.88
2019-06-18T04:01:12.730Z,16.88
2019-06-18T04:02:12.910Z,22.50
2019-06-18T04:03:12.400Z,22.50
2019-06-18T04:04:12.994Z,22.50
2019-06-18T04:05:13.808Z,22.50
2019-06-18T04:06:12.592Z,22.50
2019-06-18T04:07:13.202Z,22.50
2019-06-18T04:08:12.644Z,22.50
2019-06-18T04:09:13.341Z,22.50
2019-06-18T04:10:12.620Z,22.50
2019-06-18T04:11:13.168Z,22.50
2019-06-18T04:12:13.368Z,22.50
2019-06-18T04:13:13.119Z,22.50
2019-06-18T04:14:13.558Z,28.13
2019-06-18T04:15:12.391Z,28.13
2019-06-18T04:16:13.871Z,28.13
2019-06-18T04:17:12.836Z,28.13
2019-06-18T04:18:13.165Z,28.13
2019-06-18T04:19:12.350Z,28.13
2019-06-18T04:20:13.276Z,28.13
2019-06-18T04:21:13.003Z,33.75
2019-06-18T04:22:13.495Z,33.75
2019-06-18T04:23:13.669Z,33.75
2019-06-18T04:24:13.421Z,33.75
2019-06-18T04:25:12.304Z,33.75
2019-06-18T04:26:12.853Z,33.75
2019-06-18T04:27:12.495Z,39.38
2019-06-18T04:28:13.176Z,39.38
2019-06-18T04:29:13.248Z,39.38
2019-06-18T04:30:13.380Z,39.38
2019-06-18T04:31:13.780Z,39.38
2019-06-18T04:32:12.885Z,39.38
2019-06-18T04:33:13.405Z,45.00
2019-06-18T04:34:12.962Z,45.00
2019-06-18T04:35:12.250Z,45.00
2019-06-18T04:36:13.016Z,45.00
2019-06-18T04:37:13.868Z,45.00
2019-06-18T04:38:12.681Z,45.00
2019-06-18T04:39:12.914Z,45.00
2019-06-18T04:40:13.454Z,45.00
2019-06-18T04:41:13.387Z,45.00
2019-06-18T04:42:12.406Z,45.00
2019-06-18T04:43:12.758Z,45.00
2019-06-18T04:44:13.265Z,45.00
2019-06-18T04:45:12.991Z,45.00
2019-06-18T04:46:13.020Z,45.00
2019-06-18T04:47:15.916Z,45.00
2019-06-18T04:48:21.033Z,45.00
2019-06-18T04:49:12.468Z,45.00
2019-06-18T04:50:13.548Z,45.00
2019-06-18T04:51:13.329Z,45.00
2019-06-18T04:52:12.415Z,50.63
2019-06-18T04:53:12.962Z,50.63
2019-06-18T04:54:13.690Z,50.63
2019-06-18T04:55:13.450Z,50.63
2019-06-18T04:56:12.480Z,50.63
2019-06-18T04:57:12.936Z,50.63
2019-06-18T04:58:12.604Z,50.63
2019-06-18T04:59:13.229Z,50.63
2019-06-18T05:00:12.874Z,50.63
2019-06-18T05:01:13.459Z,50.63
2019-06-18T05:02:12.607Z,50.63
2019-06-18T05:03:13.369Z,50.63
2019-06-18T05:04:12.798Z,56.25
2019-06-18T05:05:13.076Z,50.63
2019-06-18T05:06:13.687Z,56.25
2019-06-18T05:07:13.436Z,56.25
2019-06-18T05:08:12.999Z,61.88
2019-06-18T05:09:13.408Z,61.88
2019-06-18T05:10:12.317Z,61.88
2019-06-18T05:11:12.891Z,61.88
2019-06-18T05:12:12.548Z,67.50
2019-06-18T05:13:13.635Z,67.50
2019-06-18T05:14:13.130Z,67.50
2019-06-18T05:15:13.308Z,67.50
2019-06-18T05:16:13.147Z,73.13
2019-06-18T05:17:13.429Z,73.13
2019-06-18T05:18:12.746Z,73.13
2019-06-18T05:19:12.515Z,73.13
2019-06-18T05:20:13.116Z,67.50
2019-06-18T05:21:13.146Z,73.13
2019-06-18T05:22:12.937Z,73.13
2019-06-18T05:23:13.157Z,73.13
2019-06-18T05:24:13.137Z,73.13
2019-06-18T05:25:12.411Z,73.13
2019-06-18T05:26:13.137Z,73.13
2019-06-18T05:27:12.977Z,73.13
2019-06-18T05:28:12.700Z,73.13
2019-06-18T05:29:10.932Z,73.13
2019-06-18T05:30:13.020Z,73.13
2019-06-18T05:31:13.615Z,78.75
2019-06-18T05:32:12.645Z,78.75
2019-06-18T05:33:12.953Z,78.75
2019-06-18T05:34:13.561Z,78.75
2019-06-18T05:35:12.602Z,78.75
2019-06-18T05:36:12.913Z,78.75
2019-06-18T05:37:13.318Z,78.75
2019-06-18T05:38:13.372Z,78.75
2019-06-18T05:39:13.219Z,78.75
2019-06-18T05:40:12.728Z,78.75
2019-06-18T05:41:13.377Z,78.75
2019-06-18T05:42:12.713Z,78.75
2019-06-18T05:43:13.393Z,78.75
2019-06-18T05:44:13.064Z,78.75
2019-06-18T05:45:12.965Z,78.75
2019-06-18T05:46:12.473Z,78.75
2019-06-18T05:47:12.967Z,84.38
2019-06-18T05:48:12.920Z,90.00
2019-06-18T05:49:13.054Z,84.38
2019-06-18T05:50:12.859Z,90.00
2019-06-18T05:51:12.453Z,90.00
2019-06-18T05:52:12.900Z,90.00
2019-06-18T05:53:13.058Z,84.38
2019-06-18T05:54:13.254Z,84.38
2019-06-18T05:55:12.456Z,84.38
2019-06-18T05:56:12.896Z,84.38
2019-06-18T05:57:12.605Z,90.00
2019-06-18T05:58:12.766Z,90.00
2019-06-18T05:59:13.508Z,101.25
2019-06-18T06:00:12.971Z,101.25
2019-06-18T06:01:12.887Z,101.25
2019-06-18T06:02:10.517Z,101.25
2019-06-18T06:03:12.956Z,101.25
2019-06-18T06:04:13.006Z,106.88
2019-06-18T06:05:12.240Z,118.13
2019-06-18T06:06:13.172Z,118.13
2019-06-18T06:07:10.465Z,118.13
2019-06-18T06:08:10.451Z,123.75
2019-06-18T06:09:13.094Z,123.75
2019-06-18T06:10:12.771Z,123.75
2019-06-18T06:11:12.503Z,123.75
2019-06-18T06:12:13.100Z,123.75
2019-06-18T06:13:12.670Z,123.75
2019-06-18T06:14:12.588Z,123.75
2019-06-18T06:15:13.057Z,129.38
2019-06-18T06:16:13.036Z,129.38
2019-06-18T06:17:13.386Z,129.38
2019-06-18T06:18:12.512Z,129.38
2019-06-18T06:19:15.015Z,135.00
2019-06-18T06:20:10.300Z,129.38
2019-06-18T06:21:12.751Z,129.38
2019-06-18T06:22:12.546Z,129.38
2019-06-18T06:23:12.593Z,129.38
2019-06-18T06:24:10.248Z,129.38
2019-06-18T06:25:13.600Z,129.38
2019-06-18T06:26:14.297Z,129.38
2019-06-18T06:27:12.801Z,135.00
2019-06-18T06:28:12.960Z,135.00
2019-06-18T06:29:10.188Z,135.00
2019-06-18T06:30:12.660Z,135.00
2019-06-18T06:31:10.171Z,135.00
2019-06-18T06:32:13.035Z,135.00
2019-06-18T06:33:12.828Z,22.50
2019-06-18T06:34:10.134Z,22.50
2019-06-18T06:35:10.121Z,22.50
2019-06-18T06:36:12.246Z,22.50
2019-06-18T06:37:10.098Z,22.50
2019-06-18T06:38:12.539Z,22.50
2019-06-18T06:39:10.085Z,22.50
2019-06-18T06:40:12.886Z,22.50
2019-06-18T06:41:10.048Z,22.50
2019-06-18T06:42:13.317Z,22.50
2019-06-18T06:43:10.025Z,22.50
2019-06-18T06:44:12.599Z,22.50
2019-06-18T06:45:13.068Z,22.50
2019-06-18T06:46:12.646Z,22.50
2019-06-18T06:47:14.239Z,22.50
2019-06-18T06:48:12.607Z,28.13
2019-06-18T06:49:14.106Z,28.13
2019-06-18T06:50:09.943Z,28.13
2019-06-18T06:51:09.987Z,28.13
2019-06-18T06:52:12.640Z,28.13
2019-06-18T06:53:09.918Z,28.13
2019-06-18T06:54:12.750Z,28.13
2019-06-18T06:55:12.987Z,28.13
2019-06-18T06:56:12.597Z,28.13
2019-06-18T06:57:09.873Z,28.13
2019-06-18T06:58:22.914Z,28.13
2019-06-18T06:59:09.878Z,28.13
2019-06-18T07:00:09.827Z,28.13
2019-06-18T07:01:09.820Z,28.13
2019-06-18T07:02:09.806Z,28.13
2019-06-18T07:03:09.795Z,28.13
2019-06-18T07:04:12.251Z,28.13
2019-06-18T07:05:12.514Z,28.13
2019-06-18T07:06:09.806Z,28.13
2019-06-18T07:07:09.752Z,28.13
2019-06-18T07:08:09.746Z,28.13
2019-06-18T07:09:09.730Z,28.13
2019-06-18T07:10:12.684Z,28.13
2019-06-18T07:11:12.615Z,28.13
2019-06-18T07:12:09.692Z,28.13
2019-06-18T07:13:09.688Z,28.13
2019-06-18T07:14:09.671Z,28.13
2019-06-18T07:15:09.656Z,28.13
2019-06-18T07:16:09.734Z,28.13
2019-06-18T07:17:12.428Z,28.13
2019-06-18T07:18:09.625Z,28.13
2019-06-18T07:19:12.463Z,28.13
2019-06-18T07:20:09.607Z,28.13
2019-06-18T07:21:12.780Z,33.75
2019-06-18T07:22:12.329Z,28.13
2019-06-18T07:23:09.577Z,28.13
2019-06-18T07:24:12.271Z,33.75
2019-06-18T07:25:09.570Z,33.75
2019-06-18T07:26:09.542Z,33.75
2019-06-18T07:27:09.523Z,33.75
2019-06-18T07:28:12.805Z,33.75
2019-06-18T07:29:09.505Z,33.75
2019-06-18T07:30:09.509Z,33.75
2019-06-18T07:31:09.489Z,33.75
2019-06-18T07:32:09.492Z,33.75
2019-06-18T07:33:09.461Z,33.75
2019-06-18T07:34:13.497Z,33.75
2019-06-18T07:35:09.444Z,33.75
2019-06-18T07:36:09.432Z,33.75
2019-06-18T07:37:09.421Z,33.75
2019-06-18T07:38:09.408Z,33.75
2019-06-18T07:39:09.415Z,33.75
2019-06-18T07:40:09.391Z,33.75
2019-06-18T07:41:09.379Z,33.75
2019-06-18T07:42:09.370Z,39.38
2019-06-18T07:43:09.373Z,39.38
2019-06-18T07:44:09.368Z,39.38
2019-06-18T07:45:09.337Z,39.38
2019-06-18T07:46:09.326Z,39.38
2019-06-18T07:47:09.337Z,39.38
2019-06-18T07:48:09.308Z,39.38
2019-06-18T07:49:09.300Z,39.38
2019-06-18T07:50:13.554Z,39.38
2019-06-18T07:51:09.279Z,39.38
2019-06-18T07:52:09.270Z,39.38
2019-06-18T07:53:09.261Z,39.38
2019-06-18T07:54:09.242Z,39.38
2019-06-18T07:55:09.232Z,39.38
2019-06-18T07:56:09.225Z,39.38
2019-06-18T07:57:09.219Z,39.38
2019-06-18T07:58:09.206Z,39.38
2019-06-18T07:59:09.197Z,39.38
2019-06-18T08:00:09.188Z,39.38
2019-06-18T08:01:09.180Z,39.38
2019-06-18T08:02:09.168Z,39.38
2019-06-18T08:03:09.153Z,39.38
2019-06-18T08:04:09.146Z,39.38
2019-06-18T08:05:09.140Z,39.38
2019-06-18T08:06:09.129Z,39.38
2019-06-18T08:07:09.132Z,39.38
2019-06-18T08:08:09.106Z,39.38
2019-06-18T08:09:09.099Z,39.38
2019-06-18T08:10:09.100Z,39.38
2019-06-18T08:11:09.092Z,39.38
2019-06-18T08:12:09.071Z,39.38
2019-06-18T08:13:09.064Z,39.38
2019-06-18T08:14:09.047Z,39.38
2019-06-18T08:15:09.039Z,39.38
2019-06-18T08:16:09.030Z,39.38
2019-06-18T08:17:09.031Z,45.00
2019-06-18T08:18:09.015Z,45.00
2019-06-18T08:19:09.016Z,45.00
2019-06-18T08:20:09.050Z,39.38
2019-06-18T08:21:09.011Z,45.00
2019-06-18T08:22:14.356Z,45.00
2019-06-18T08:23:08.963Z,39.38
2019-06-18T08:24:08.959Z,39.38
2019-06-18T08:25:08.951Z,39.38
2019-06-18T08:26:08.939Z,45.00
2019-06-18T08:27:08.929Z,45.00
2019-06-18T08:28:08.920Z,45.00
2019-06-18T08:29:08.909Z,45.00
2019-06-18T08:30:08.903Z,45.00
2019-06-18T08:31:08.898Z,45.00
2019-06-18T08:32:08.883Z,45.00
2019-06-18T08:33:08.896Z,45.00
2019-06-18T08:34:08.877Z,39.38
2019-06-18T08:35:08.871Z,45.00
2019-06-18T08:36:08.845Z,45.00
2019-06-18T08:37:08.837Z,45.00
2019-06-18T08:38:08.834Z,50.63
2019-06-18T08:39:08.818Z,50.63
2019-06-18T08:40:08.818Z,50.63
2019-06-18T08:41:08.802Z,45.00
2019-06-18T08:42:08.799Z,50.63
2019-06-18T08:43:08.780Z,50.63
2019-06-18T08:44:08.770Z,50.63
2019-06-18T08:45:08.771Z,50.63
2019-06-18T08:46:08.833Z,50.63
2019-06-18T08:47:08.748Z,50.63
2019-06-18T08:48:08.735Z,50.63
2019-06-18T08:49:08.726Z,50.63
2019-06-18T08:50:08.715Z,50.63
2019-06-18T08:51:08.709Z,50.63
2019-06-18T08:52:08.700Z,50.63
2019-06-18T08:53:08.697Z,50.63
2019-06-18T08:54:08.685Z,50.63
2019-06-18T08:55:08.678Z,56.25
2019-06-18T08:56:11.514Z,50.63
2019-06-18T08:57:08.657Z,50.63
2019-06-18T08:58:08.656Z,50.63
2019-06-18T08:59:08.646Z,50.63
2019-06-18T09:00:08.636Z,50.63
2019-06-18T09:01:08.623Z,50.63
2019-06-18T09:02:08.615Z,50.63
2019-06-18T09:03:22.023Z,50.63
2019-06-18T09:04:08.598Z,56.25
2019-06-18T09:05:08.591Z,56.25
2019-06-18T09:06:08.582Z,50.63
2019-06-18T09:07:08.575Z,50.63
2019-06-18T09:08:08.565Z,50.63
2019-06-18T09:09:08.567Z,56.25
2019-06-18T09:10:08.558Z,56.25
2019-06-18T09:11:08.541Z,56.25
2019-06-18T09:12:08.535Z,56.25
2019-06-18T09:13:08.524Z,56.25
2019-06-18T09:14:08.518Z,56.25
2019-06-18T09:15:08.534Z,56.25
2019-06-18T09:16:08.503Z,56.25
2019-06-18T09:17:08.494Z,56.25
2019-06-18T09:18:08.485Z,56.25
2019-06-18T09:19:08.474Z,56.25
2019-06-18T09:20:08.495Z,56.25
2019-06-18T09:21:08.639Z,56.25
2019-06-18T09:22:08.493Z,50.63
2019-06-18T09:23:08.452Z,56.25
2019-06-18T09:24:08.437Z,56.25
2019-06-18T09:25:08.430Z,56.25
2019-06-18T09:26:08.422Z,56.25
2019-06-18T09:27:08.411Z,56.25
2019-06-18T09:28:08.402Z,56.25
2019-06-18T09:29:08.397Z,56.25
2019-06-18T09:30:08.395Z,56.25
2019-06-18T09:31:08.395Z,61.88
2019-06-18T09:32:08.393Z,61.88
2019-06-18T09:33:08.369Z,61.88
2019-06-18T09:34:08.363Z,56.25
2019-06-18T09:35:08.351Z,61.88
2019-06-18T09:36:08.341Z,61.88
2019-06-18T09:37:08.357Z,61.88
2019-06-18T09:38:08.343Z,56.25
2019-06-18T09:39:08.323Z,56.25
2019-06-18T09:40:08.315Z,56.25
2019-06-18T09:41:08.302Z,45.00
2019-06-18T09:42:08.333Z,56.25
2019-06-18T09:43:08.286Z,56.25
2019-06-18T09:44:08.283Z,56.25
2019-06-18T09:45:08.279Z,61.88
2019-06-18T09:46:08.266Z,61.88
2019-06-18T09:47:08.264Z,61.88
2019-06-18T09:48:08.251Z,61.88
2019-06-18T09:49:08.242Z,61.88
2019-06-18T09:50:08.234Z,61.88
2019-06-18T09:51:20.412Z,61.88
2019-06-18T09:52:08.219Z,67.50
2019-06-18T09:53:08.220Z,67.50
2019-06-18T09:54:08.206Z,67.50
2019-06-18T09:55:08.202Z,61.88
2019-06-18T09:56:08.191Z,67.50
2019-06-18T09:57:08.182Z,67.50
2019-06-18T09:58:08.184Z,56.25
2019-06-18T09:59:08.166Z,22.50
2019-06-18T10:00:08.173Z,67.50
2019-06-18T10:01:08.159Z,56.25
2019-06-18T10:02:08.144Z,67.50
2019-06-18T10:03:08.134Z,61.88
2019-06-18T10:04:08.170Z,67.50
2019-06-18T10:05:08.122Z,33.75
2019-06-18T10:06:08.116Z,33.75
2019-06-18T10:07:08.107Z,67.50
2019-06-18T10:08:08.097Z,73.13
2019-06-18T10:09:08.090Z,67.50
2019-06-18T10:10:08.085Z,73.13
2019-06-18T10:11:08.085Z,73.13
2019-06-18T10:12:08.066Z,73.13
2019-06-18T10:13:08.070Z,73.13
2019-06-18T10:14:08.055Z,73.13
2019-06-18T10:15:08.061Z,73.13
2019-06-18T10:16:08.058Z,73.13
2019-06-18T10:17:08.036Z,67.50
2019-06-18T10:18:08.029Z,61.88
2019-06-18T10:19:08.026Z,61.88
2019-06-18T10:20:08.013Z,61.88
2019-06-18T10:21:08.045Z,61.88
2019-06-18T10:22:08.004Z,67.50
2019-06-18T10:23:07.994Z,73.13
2019-06-18T10:24:07.984Z,73.13
2019-06-18T10:25:07.981Z,73.13
2019-06-18T10:26:07.973Z,84.38
2019-06-18T10:27:07.964Z,84.38
2019-06-18T10:28:07.951Z,84.38
2019-06-18T10:29:26.260Z,90.00
2019-06-18T10:30:07.940Z,84.38
2019-06-18T10:31:07.929Z,33.75
2019-06-18T10:32:07.929Z,33.75
2019-06-18T10:33:07.924Z,33.75
2019-06-18T10:34:07.915Z,67.50
2019-06-18T10:35:08.030Z,67.50
2019-06-18T10:36:07.902Z,61.88
2019-06-18T10:37:07.895Z,67.50
2019-06-18T10:38:07.888Z,67.50
2019-06-18T10:39:07.880Z,67.50
2019-06-18T10:40:07.870Z,61.88
2019-06-18T10:41:07.864Z,61.88
2019-06-18T10:42:07.854Z,67.50
2019-06-18T10:43:07.848Z,67.50
2019-06-18T10:44:07.838Z,61.88
2019-06-18T10:45:07.841Z,67.50
2019-06-18T10:46:07.826Z,61.88
2019-06-18T10:47:07.818Z,67.50
2019-06-18T10:48:07.809Z,67.50
2019-06-18T10:49:17.615Z,61.88
2019-06-18T10:50:07.804Z,61.88
2019-06-18T10:51:07.799Z,61.88
2019-06-18T10:52:07.782Z,61.88
2019-06-18T10:53:07.782Z,61.88
2019-06-18T10:54:07.769Z,56.25
2019-06-18T10:55:07.796Z,33.75
2019-06-18T10:56:07.762Z,33.75
2019-06-18T10:57:07.761Z,33.75
2019-06-18T10:58:07.745Z,56.25
2019-06-18T10:59:07.745Z,50.63
2019-06-18T11:00:07.741Z,39.38
2019-06-18T11:01:07.722Z,45.00
2019-06-18T11:02:07.717Z,45.00
2019-06-18T11:03:07.708Z,56.25
2019-06-18T11:04:07.702Z,67.50
2019-06-18T11:05:07.693Z,67.50
2019-06-18T11:06:07.700Z,67.50
2019-06-18T11:07:07.683Z,67.50
2019-06-18T11:08:07.726Z,61.88
2019-06-18T11:09:07.669Z,50.63
2019-06-18T11:10:07.659Z,45.00
2019-06-18T11:11:07.650Z,67.50
2019-06-18T11:12:07.645Z,73.13
2019-06-18T11:13:07.639Z,33.75
2019-06-18T11:14:12.417Z,33.75
2019-06-18T11:15:07.625Z,33.75
2019-06-18T11:16:07.615Z,56.25
2019-06-18T11:17:07.613Z,56.25
2019-06-18T11:18:07.603Z,50.63
2019-06-18T11:19:07.596Z,61.88
2019-06-18T11:20:07.595Z,67.50
2019-06-18T11:21:07.711Z,67.50
2019-06-18T11:22:11.097Z,56.25
2019-06-18T11:23:07.570Z,61.88
2019-06-18T11:24:07.562Z,67.50
2019-06-18T11:25:07.556Z,73.13
2019-06-18T11:26:07.547Z,73.13
2019-06-18T11:27:07.539Z,73.13
2019-06-18T11:28:07.535Z,73.13
2019-06-18T11:29:07.531Z,73.13
2019-06-18T11:30:07.959Z,73.13
2019-06-18T11:31:07.514Z,73.13
2019-06-18T11:32:07.508Z,78.75
2019-06-18T11:33:07.511Z,67.50
2019-06-18T11:34:07.497Z,73.13
2019-06-18T11:35:07.495Z,67.50
2019-06-18T11:36:07.531Z,39.38
2019-06-18T11:37:07.481Z,45.00
2019-06-18T11:38:07.473Z,73.13
2019-06-18T11:39:07.476Z,73.13
2019-06-18T11:40:08.213Z,28.13
2019-06-18T11:41:07.452Z,28.13
2019-06-18T11:42:07.453Z,33.75
2019-06-18T11:43:07.439Z,67.50
2019-06-18T11:44:07.440Z,33.75
2019-06-18T11:45:07.441Z,28.13
2019-06-18T11:46:07.431Z,28.13
2019-06-18T11:47:07.423Z,28.13
2019-06-18T11:48:08.579Z,28.13
2019-06-18T11:49:07.419Z,67.50
2019-06-18T11:50:07.406Z,33.75
2019-06-18T11:51:07.389Z,67.50
2019-06-18T11:52:07.390Z,67.50
2019-06-18T11:53:07.376Z,61.88
2019-06-18T11:54:07.369Z,56.25
2019-06-18T11:55:07.363Z,61.88
2019-06-18T11:56:07.364Z,67.50
2019-06-18T11:57:07.349Z,61.88
2019-06-18T11:58:07.350Z,67.50
2019-06-18T11:59:07.336Z,45.00
2019-06-18T12:00:07.334Z,61.88
2019-06-18T12:01:07.328Z,73.13
2019-06-18T12:02:07.351Z,73.13
2019-06-18T12:03:07.313Z,73.13
2019-06-18T12:04:07.307Z,78.75
2019-06-18T12:05:07.327Z,78.75
2019-06-18T12:06:07.295Z,78.75
2019-06-18T12:07:07.288Z,61.88
2019-06-18T12:08:07.285Z,33.75
2019-06-18T12:09:07.276Z,39.38
2019-06-18T12:10:07.270Z,78.75
2019-06-18T12:11:07.263Z,73.13
2019-06-18T12:12:07.261Z,73.13
2019-06-18T12:13:07.255Z,73.13
2019-06-18T12:14:07.254Z,61.88
2019-06-18T12:15:07.243Z,61.88
2019-06-18T12:16:07.235Z,33.75
2019-06-18T12:17:07.230Z,61.88
2019-06-18T12:18:08.613Z,67.50
2019-06-18T12:19:07.221Z,61.88
2019-06-18T12:20:07.211Z,56.25
2019-06-18T12:21:07.213Z,39.38
2019-06-18T12:22:07.205Z,28.13
2019-06-18T12:23:07.201Z,28.13
2019-06-18T12:24:07.197Z,28.13
2019-06-18T12:25:07.187Z,28.13
2019-06-18T12:26:07.175Z,33.75
2019-06-18T12:27:07.173Z,33.75
2019-06-18T12:28:07.162Z,39.38
2019-06-18T12:29:07.165Z,50.63
2019-06-18T12:30:07.150Z,39.38
2019-06-18T12:31:07.147Z,45.00
2019-06-18T12:32:07.143Z,39.38
2019-06-18T12:33:07.131Z,45.00
2019-06-18T12:34:07.125Z,28.13
2019-06-18T12:35:07.118Z,28.13
2019-06-18T12:36:07.115Z,28.13
2019-06-18T12:37:07.112Z,28.13
2019-06-18T12:38:07.099Z,28.13
2019-06-18T12:39:07.112Z,28.13
2019-06-18T12:40:07.098Z,28.13
2019-06-18T12:41:07.080Z,33.75
2019-06-18T12:42:07.074Z,33.75
2019-06-18T12:43:07.069Z,39.38
2019-06-18T12:44:07.064Z,50.63
2019-06-18T12:45:07.054Z,56.25
2019-06-18T12:46:07.054Z,33.75
2019-06-18T12:47:07.044Z,45.00
2019-06-18T12:48:07.035Z,45.00
2019-06-18T12:49:07.029Z,56.25
2019-06-18T12:50:07.023Z,50.63
2019-06-18T12:51:07.011Z,50.63
2019-06-18T12:52:07.022Z,50.63
2019-06-18T12:53:10.123Z,61.88
2019-06-18T12:54:09.823Z,50.63
2019-06-18T12:55:06.994Z,45.00
2019-06-18T12:56:06.988Z,45.00
2019-06-18T12:57:06.977Z,45.00
2019-06-18T12:58:06.968Z,56.25
2019-06-18T12:59:21.686Z,61.88
2019-06-18T13:00:06.968Z,56.25
2019-06-18T13:01:06.987Z,50.63